Aviation Digital Data Service (ADDS)

Output produced by METARs form (0244 UTC 24 July 2017)
found at http://www.aviationweather.gov/adds/metars/
 
TAF TLPC 232300Z 2400/2500 10012KT 9999 SCT025 
     TEMPO 2400/2412 SHRA
       
TAF TLPL 232300Z 2400/2500 09020KT 9999 SCT025 
     TEMPO 2400/2412 SHRA